sensor_id;sensor_type;location;lat;lon;timestamp;pressure;altitude;pressure_sealevel;temperature;humidity
15272;BME280;7737;51.578;7.268;2023-04-03T00:00:21;102483.03;;;1.57;100.00
15272;BME280;7737;51.578;7.268;2023-04-03T00:02:47;102498.47;;;1.39;100.00
15272;BME280;7737;51.578;7.268;2023-04-03T00:05:15;102492.59;;;1.53;100.00
15272;BME280;7737;51.578;7.268;2023-04-03T00:07:42;102495.13;;;1.49;100.00
15272;BME280;7737;51.578;7.268;2023-04-03T00:10:09;102498.75;;;1.57;100.00
15272;BME280;7737;51.578;7.268;2023-04-03T00:12:35;102504.81;;;1.53;100.00
15272;BME280;7737;51.578;7.268;2023-04-03T00:15:02;102500.53;;;1.59;100.00
15272;BME280;7737;51.578;7.268;2023-04-03T00:17:29;102504.88;;;1.57;100.00
15272;BME280;7737;51.578;7.268;2023-04-03T00:19:56;102503.09;;;1.53;100.00
15272;BME280;7737;51.578;7.268;2023-04-03T00:22:23;102499.53;;;1.51;100.00
15272;BME280;7737;51.578;7.268;2023-04-03T00:24:51;102501.53;;;1.67;100.00
15272;BME280;7737;51.578;7.268;2023-04-03T00:27:18;102503.09;;;1.56;100.00
15272;BME280;7737;51.578;7.268;2023-04-03T00:29:44;102504.94;;;1.60;100.00
15272;BME280;7737;51.578;7.268;2023-04-03T00:32:11;102499.69;;;1.60;100.00
15272;BME280;7737;51.578;7.268;2023-04-03T00:34:38;102497.97;;;1.61;100.00
15272;BME280;7737;51.578;7.268;2023-04-03T00:37:04;102503.16;;;1.59;100.00
15272;BME280;7737;51.578;7.268;2023-04-03T00:39:32;102501.53;;;1.67;100.00
15272;BME280;7737;51.578;7.268;2023-04-03T00:41:59;102503.38;;;1.71;100.00
15272;BME280;7737;51.578;7.268;2023-04-03T00:47:26;102500.53;;;1.59;100.00
15272;BME280;7737;51.578;7.268;2023-04-03T00:49:53;102500.66;;;1.67;100.00
15272;BME280;7737;51.578;7.268;2023-04-03T00:52:23;102508.66;;;1.76;100.00
15272;BME280;7737;51.578;7.268;2023-04-03T00:54:54;102506.06;;;1.77;100.00
15272;BME280;7737;51.578;7.268;2023-04-03T00:57:23;102506.94;;;1.76;100.00
15272;BME280;7737;51.578;7.268;2023-04-03T00:59:54;102504.28;;;1.73;100.00
15272;BME280;7737;51.578;7.268;2023-04-03T01:02:23;102513.84;;;1.71;100.00
15272;BME280;7737;51.578;7.268;2023-04-03T01:04:50;102512.13;;;1.73;100.00
15272;BME280;7737;51.578;7.268;2023-04-03T01:07:20;102506.72;;;1.61;100.00
15272;BME280;7737;51.578;7.268;2023-04-03T01:09:48;102515.69;;;1.78;100.00
15272;BME280;7737;51.578;7.268;2023-04-03T01:12:19;102506.13;;;1.80;100.00
15272;BME280;7737;51.578;7.268;2023-04-03T01:14:49;102511.34;;;1.79;100.00
15272;BME280;7737;51.578;7.268;2023-04-03T01:17:31;102517.69;;;1.95;100.00
15272;BME280;7737;51.578;7.268;2023-04-03T01:26:19;102515.81;;;1.84;100.00
15272;BME280;7737;51.578;7.268;2023-04-03T01:28:47;102511.44;;;1.85;100.00
15272;BME280;7737;51.578;7.268;2023-04-03T01:31:20;102521.06;;;1.84;100.00
15272;BME280;7737;51.578;7.268;2023-04-03T01:33:49;102519.16;;;1.76;100.00
15272;BME280;7737;51.578;7.268;2023-04-03T01:36:18;102516.81;;;1.94;100.00
15272;BME280;7737;51.578;7.268;2023-04-03T01:38:45;102520.06;;;1.76;100.00
15272;BME280;7737;51.578;7.268;2023-04-03T01:41:12;102523.59;;;1.80;100.00
15272;BME280;7737;51.578;7.268;2023-04-03T01:43:39;102514.13;;;1.90;100.00
15272;BME280;7737;51.578;7.268;2023-04-03T01:46:05;102515.03;;;1.90;100.00
15272;BME280;7737;51.578;7.268;2023-04-03T01:48:32;102517.66;;;1.92;100.00
15272;BME280;7737;51.578;7.268;2023-04-03T01:51:00;102515.75;;;1.81;100.00
15272;BME280;7737;51.578;7.268;2023-04-03T01:53:27;102512.13;;;1.73;100.00
15272;BME280;7737;51.578;7.268;2023-04-03T01:55:53;102521.06;;;1.84;100.00
15272;BME280;7737;51.578;7.268;2023-04-03T01:58:20;102514.69;;;1.70;100.00
15272;BME280;7737;51.578;7.268;2023-04-03T02:00:46;102516.47;;;1.71;100.00
15272;BME280;7737;51.578;7.268;2023-04-03T02:03:13;102515.59;;;1.69;100.00
15272;BME280;7737;51.578;7.268;2023-04-03T02:05:40;102518.94;;;1.62;100.00
15272;BME280;7737;51.578;7.268;2023-04-03T02:08:08;102524.25;;;1.67;100.00
15272;BME280;7737;51.578;7.268;2023-04-03T02:10:34;102524.25;;;1.65;100.00
15272;BME280;7737;51.578;7.268;2023-04-03T02:13:01;102527.63;;;1.58;100.00
15272;BME280;7737;51.578;7.268;2023-04-03T02:15:27;102542.47;;;1.59;100.00
15272;BME280;7737;51.578;7.268;2023-04-03T02:17:54;102536.41;;;1.62;100.00
15272;BME280;7737;51.578;7.268;2023-04-03T02:20:20;102541.63;;;1.59;100.00
15272;BME280;7737;51.578;7.268;2023-04-03T02:22:47;102541.63;;;1.60;100.00
15272;BME280;7737;51.578;7.268;2023-04-03T02:25:15;102542.75;;;1.76;100.00
15272;BME280;7737;51.578;7.268;2023-04-03T02:27:43;102544.25;;;1.62;100.00
15272;BME280;7737;51.578;7.268;2023-04-03T02:30:10;102539.84;;;1.59;100.00
15272;BME280;7737;51.578;7.268;2023-04-03T02:32:37;102541.56;;;1.57;100.00
15272;BME280;7737;51.578;7.268;2023-04-03T02:35:05;102540.69;;;1.57;100.00
15272;BME280;7737;51.578;7.268;2023-04-03T02:37:32;102547.53;;;1.47;100.00
15272;BME280;7737;51.578;7.268;2023-04-03T02:39:58;102545.81;;;1.49;100.00
15272;BME280;7737;51.578;7.268;2023-04-03T02:42:26;102553.91;;;1.64;100.00
15272;BME280;7737;51.578;7.268;2023-04-03T02:44:53;102551.22;;;1.58;100.00
15272;BME280;7737;51.578;7.268;2023-04-03T02:47:20;102552.88;;;1.53;100.00
15272;BME280;7737;51.578;7.268;2023-04-03T02:49:47;102543.19;;;1.49;100.00
15272;BME280;7737;51.578;7.268;2023-04-03T02:52:14;102557.97;;;1.46;100.00
15272;BME280;7737;51.578;7.268;2023-04-03T02:54:41;102551.75;;;1.38;100.00
15272;BME280;7737;51.578;7.268;2023-04-03T02:57:07;102556.94;;;1.36;100.00
15272;BME280;7737;51.578;7.268;2023-04-03T02:59:36;102549.06;;;1.36;100.00
15272;BME280;7737;51.578;7.268;2023-04-03T03:02:05;102556.06;;;1.36;100.00
15272;BME280;7737;51.578;7.268;2023-04-03T03:04:32;102551.63;;;1.33;100.00
15272;BME280;7737;51.578;7.268;2023-04-03T03:06:58;102549.91;;;1.35;100.00
15272;BME280;7737;51.578;7.268;2023-04-03T03:09:25;102556.09;;;1.39;100.00
15272;BME280;7737;51.578;7.268;2023-04-03T03:11:52;102557.88;;;1.40;100.00
15272;BME280;7737;51.578;7.268;2023-04-03T03:14:19;102559.63;;;1.39;100.00
15272;BME280;7737;51.578;7.268;2023-04-03T03:16:46;102548.13;;;1.31;100.00
15272;BME280;7737;51.578;7.268;2023-04-03T03:19:13;102549.97;;;1.38;100.00
15272;BME280;7737;51.578;7.268;2023-04-03T03:21:40;102546.31;;;1.29;100.00
15272;BME280;7737;51.578;7.268;2023-04-03T03:24:06;102554.38;;;1.38;100.00
15272;BME280;7737;51.578;7.268;2023-04-03T03:26:33;102547.28;;;1.32;100.00
15272;BME280;7737;51.578;7.268;2023-04-03T03:29:00;102554.19;;;1.30;100.00
15272;BME280;7737;51.578;7.268;2023-04-03T03:31:26;102559.34;;;1.24;100.00
15272;BME280;7737;51.578;7.268;2023-04-03T03:33:54;102551.38;;;1.18;100.00
15272;BME280;7737;51.578;7.268;2023-04-03T03:36:21;102552.41;;;1.28;100.00
15272;BME280;7737;51.578;7.268;2023-04-03T03:38:47;102559.31;;;1.22;100.00
15272;BME280;7737;51.578;7.268;2023-04-03T03:41:13;102561.16;;;1.27;100.00
15272;BME280;7737;51.578;7.268;2023-04-03T03:43:40;102561.84;;;1.18;100.00
15272;BME280;7737;51.578;7.268;2023-04-03T03:46:06;102563.63;;;1.19;100.00
15272;BME280;7737;51.578;7.268;2023-04-03T03:48:33;102565.44;;;1.24;100.00
15272;BME280;7737;51.578;7.268;2023-04-03T03:51:01;102559.22;;;1.18;100.00
15272;BME280;7737;51.578;7.268;2023-04-03T03:53:27;102568.91;;;1.22;100.00
15272;BME280;7737;51.578;7.268;2023-04-03T03:55:54;102566.97;;;1.12;100.00
15272;BME280;7737;51.578;7.268;2023-04-03T03:58:20;102570.59;;;1.18;100.00
15272;BME280;7737;51.578;7.268;2023-04-03T04:00:47;102563.56;;;1.16;100.00
15272;BME280;7737;51.578;7.268;2023-04-03T04:03:13;102571.09;;;0.98;100.00
15272;BME280;7737;51.578;7.268;2023-04-03T04:05:40;102565.94;;;1.02;100.00
15272;BME280;7737;51.578;7.268;2023-04-03T04:08:07;102564.97;;;0.99;100.00
15272;BME280;7737;51.578;7.268;2023-04-03T04:10:35;102574.41;;;0.89;100.00
15272;BME280;7737;51.578;7.268;2023-04-03T04:13:02;102567.38;;;0.88;100.00
15272;BME280;7737;51.578;7.268;2023-04-03T04:15:28;102570.97;;;0.93;100.00
15272;BME280;7737;51.578;7.268;2023-04-03T04:17:56;102574.34;;;0.88;100.00
15272;BME280;7737;51.578;7.268;2023-04-03T04:20:23;102577.84;;;0.87;100.00
15272;BME280;7737;51.578;7.268;2023-04-03T04:22:49;102579.63;;;0.89;100.00
15272;BME280;7737;51.578;7.268;2023-04-03T04:25:17;102583.84;;;0.83;100.00
15272;BME280;7737;51.578;7.268;2023-04-03T04:27:44;102575.97;;;0.81;100.00
15272;BME280;7737;51.578;7.268;2023-04-03T04:30:11;102588.97;;;0.77;100.00
15272;BME280;7737;51.578;7.268;2023-04-03T04:32:38;102592.50;;;0.79;100.00
15272;BME280;7737;51.578;7.268;2023-04-03T04:35:05;102588.31;;;0.87;100.00
15272;BME280;7737;51.578;7.268;2023-04-03T04:37:31;102594.16;;;0.74;100.00
15272;BME280;7737;51.578;7.268;2023-04-03T04:39:58;102596.78;;;0.75;100.00
15272;BME280;7737;51.578;7.268;2023-04-03T04:42:26;102599.41;;;0.75;100.00
15272;BME280;7737;51.578;7.268;2023-04-03T04:44:53;102602.09;;;0.78;100.00
15272;BME280;7737;51.578;7.268;2023-04-03T04:47:19;102593.81;;;0.58;100.00
15272;BME280;7737;51.578;7.268;2023-04-03T04:49:46;102606.28;;;0.72;100.00
15272;BME280;7737;51.578;7.268;2023-04-03T04:52:13;102604.28;;;0.58;100.00
15272;BME280;7737;51.578;7.268;2023-04-03T04:54:39;102610.28;;;0.53;100.00
15272;BME280;7737;51.578;7.268;2023-04-03T04:57:06;102612.78;;;0.48;100.00
15272;BME280;7737;51.578;7.268;2023-04-03T04:59:34;102607.81;;;0.60;100.00
15272;BME280;7737;51.578;7.268;2023-04-03T05:02:00;102613.75;;;0.52;100.00
15272;BME280;7737;51.578;7.268;2023-04-03T05:04:27;102615.44;;;0.50;100.00
15272;BME280;7737;51.578;7.268;2023-04-03T05:06:53;102624.16;;;0.50;100.00
15272;BME280;7737;51.578;7.268;2023-04-03T05:09:20;102620.63;;;0.48;100.00
15272;BME280;7737;51.578;7.268;2023-04-03T05:11:46;102627.81;;;0.58;100.00
15272;BME280;7737;51.578;7.268;2023-04-03T05:14:13;102623.28;;;0.50;100.00
15272;BME280;7737;51.578;7.268;2023-04-03T05:16:41;102624.94;;;0.46;100.00
15272;BME280;7737;51.578;7.268;2023-04-03T05:19:07;102625.97;;;0.53;100.00
15272;BME280;7737;51.578;7.268;2023-04-03T05:21:34;102642.44;;;0.47;100.00
15272;BME280;7737;51.578;7.268;2023-04-03T05:24:01;102640.88;;;0.55;100.00
15272;BME280;7737;51.578;7.268;2023-04-03T05:26:28;102645.31;;;0.59;100.00
15272;BME280;7737;51.578;7.268;2023-04-03T05:28:55;102648.72;;;0.55;100.00
15272;BME280;7737;51.578;7.268;2023-04-03T05:31:22;102648.16;;;0.72;100.00
15272;BME280;7737;51.578;7.268;2023-04-03T05:33:50;102657.78;;;0.71;100.00
15272;BME280;7737;51.578;7.268;2023-04-03T05:36:16;102660.41;;;0.73;100.00
15272;BME280;7737;51.578;7.268;2023-04-03T05:38:43;102659.66;;;0.78;100.00
15272;BME280;7737;51.578;7.268;2023-04-03T05:41:09;102671.91;;;0.79;100.00
15272;BME280;7737;51.578;7.268;2023-04-03T05:43:36;102665.13;;;0.89;100.00
15272;BME280;7737;51.578;7.268;2023-04-03T05:46:04;102665.03;;;0.84;100.00
15272;BME280;7737;51.578;7.268;2023-04-03T05:48:33;102669.47;;;0.87;100.00
15272;BME280;7737;51.578;7.268;2023-04-03T05:51:01;102675.00;;;1.00;100.00
15272;BME280;7737;51.578;7.268;2023-04-03T05:53:29;102682.78;;;0.99;100.00
15272;BME280;7737;51.578;7.268;2023-04-03T05:55:57;102680.19;;;0.99;100.00
15272;BME280;7737;51.578;7.268;2023-04-03T05:58:24;102682.09;;;1.06;100.00
15272;BME280;7737;51.578;7.268;2023-04-03T06:00:50;102679.50;;;1.09;100.00
15272;BME280;7737;51.578;7.268;2023-04-03T06:03:17;102678.75;;;1.13;100.00
15272;BME280;7737;51.578;7.268;2023-04-03T06:05:43;102686.69;;;1.17;100.00
15272;BME280;7737;51.578;7.268;2023-04-03T06:08:12;102685.91;;;1.23;100.00
15272;BME280;7737;51.578;7.268;2023-04-03T06:10:39;102678.97;;;1.25;100.00
15272;BME280;7737;51.578;7.268;2023-04-03T06:13:06;102691.31;;;1.31;100.00
15272;BME280;7737;51.578;7.268;2023-04-03T06:15:33;102687.88;;;1.33;100.00
15272;BME280;7737;51.578;7.268;2023-04-03T06:18:00;102690.63;;;1.39;100.00
15272;BME280;7737;51.578;7.268;2023-04-03T06:20:26;102689.81;;;1.43;100.00
15272;BME280;7737;51.578;7.268;2023-04-03T06:22:53;102682.00;;;1.46;100.00
15272;BME280;7737;51.578;7.268;2023-04-03T06:25:20;102683.91;;;1.53;100.00
15272;BME280;7737;51.578;7.268;2023-04-03T06:27:47;102680.53;;;1.60;100.00
15272;BME280;7737;51.578;7.268;2023-04-03T06:30:14;102683.28;;;1.66;100.00
15272;BME280;7737;51.578;7.268;2023-04-03T06:32:41;102681.50;;;1.65;100.00
15272;BME280;7737;51.578;7.268;2023-04-03T06:35:08;102676.31;;;1.68;100.00
15272;BME280;7737;51.578;7.268;2023-04-03T06:37:35;102681.72;;;1.77;100.00
15272;BME280;7737;51.578;7.268;2023-04-03T06:40:02;102678.19;;;1.75;100.00
15272;BME280;7737;51.578;7.268;2023-04-03T06:42:30;102669.69;;;1.89;100.00
15272;BME280;7737;51.578;7.268;2023-04-03T06:44:56;102666.41;;;2.02;100.00
15272;BME280;7737;51.578;7.268;2023-04-03T06:47:23;102660.22;;;1.97;100.00
15272;BME280;7737;51.578;7.268;2023-04-03T06:49:49;102663.19;;;2.18;100.00
15272;BME280;7737;51.578;7.268;2023-04-03T06:52:16;102667.59;;;2.19;100.00
15272;BME280;7737;51.578;7.268;2023-04-03T06:54:42;102664.34;;;2.36;100.00
15272;BME280;7737;51.578;7.268;2023-04-03T06:57:09;102671.53;;;2.50;100.00
15272;BME280;7737;51.578;7.268;2023-04-03T06:59:37;102672.44;;;2.49;100.00
15272;BME280;7737;51.578;7.268;2023-04-03T07:02:04;102674.22;;;2.53;100.00
15272;BME280;7737;51.578;7.268;2023-04-03T07:04:30;102674.44;;;2.66;100.00
15272;BME280;7737;51.578;7.268;2023-04-03T07:06:57;102667.50;;;2.71;100.00
15272;BME280;7737;51.578;7.268;2023-04-03T07:09:23;102676.38;;;2.81;100.00
15272;BME280;7737;51.578;7.268;2023-04-03T07:11:50;102668.53;;;2.84;100.00
15272;BME280;7737;51.578;7.268;2023-04-03T07:14:16;102675.84;;;3.06;100.00
15272;BME280;7737;51.578;7.268;2023-04-03T07:16:44;102671.66;;;3.22;100.00
15272;BME280;7737;51.578;7.268;2023-04-03T07:19:11;102680.38;;;3.18;100.00
15272;BME280;7737;51.578;7.268;2023-04-03T07:21:38;102669.91;;;3.24;100.00
15272;BME280;7737;51.578;7.268;2023-04-03T07:24:05;102679.53;;;3.23;100.00
15272;BME280;7737;51.578;7.268;2023-04-03T07:26:32;102670.81;;;3.24;100.00
15272;BME280;7737;51.578;7.268;2023-04-03T07:28:59;102672.75;;;3.39;100.00
15272;BME280;7737;51.578;7.268;2023-04-03T07:31:25;102680.63;;;3.39;100.00
15272;BME280;7737;51.578;7.268;2023-04-03T07:33:53;102677.13;;;3.40;100.00
15272;BME280;7737;51.578;7.268;2023-04-03T07:36:22;102665.88;;;3.53;100.00
15272;BME280;7737;51.578;7.268;2023-04-03T07:38:49;102671.31;;;3.71;100.00
15272;BME280;7737;51.578;7.268;2023-04-03T07:41:18;102666.44;;;3.25;100.00
15272;BME280;7737;51.578;7.268;2023-04-03T07:43:45;102663.47;;;3.76;100.00
15272;BME280;7737;51.578;7.268;2023-04-03T07:46:12;102667.97;;;3.86;100.00
15272;BME280;7737;51.578;7.268;2023-04-03T07:48:38;102665.59;;;4.17;100.00
15272;BME280;7737;51.578;7.268;2023-04-03T07:51:06;102657.56;;;4.01;100.00
15272;BME280;7737;51.578;7.268;2023-04-03T07:53:33;102663.03;;;4.26;100.00
15272;BME280;7737;51.578;7.268;2023-04-03T07:55:59;102670.66;;;3.93;100.00
15272;BME280;7737;51.578;7.268;2023-04-03T07:58:28;102666.44;;;4.12;100.00
15272;BME280;7737;51.578;7.268;2023-04-03T08:00:54;102651.47;;;4.06;100.00
15272;BME280;7737;51.578;7.268;2023-04-03T08:03:21;102660.53;;;4.42;100.00
15272;BME280;7737;51.578;7.268;2023-04-03T08:05:49;102658.00;;;4.60;100.00
15272;BME280;7737;51.578;7.268;2023-04-03T08:08:18;102651.81;;;4.55;100.00
15272;BME280;7737;51.578;7.268;2023-04-03T08:10:48;102652.56;;;4.36;100.00
15272;BME280;7737;51.578;7.268;2023-04-03T08:13:15;102655.41;;;4.72;100.00
15272;BME280;7737;51.578;7.268;2023-04-03T08:15:41;102647.34;;;4.42;100.00
15272;BME280;7737;51.578;7.268;2023-04-03T08:18:08;102639.59;;;4.66;100.00
15272;BME280;7737;51.578;7.268;2023-04-03T08:20:35;102632.59;;;4.74;100.00
15272;BME280;7737;51.578;7.268;2023-04-03T08:23:02;102627.25;;;4.59;100.00
15272;BME280;7737;51.578;7.268;2023-04-03T08:25:30;102614.25;;;4.93;100.00
15272;BME280;7737;51.578;7.268;2023-04-03T08:27:57;102606.16;;;4.56;100.00
15272;BME280;7737;51.578;7.268;2023-04-03T08:30:23;102596.72;;;4.97;100.00
15272;BME280;7737;51.578;7.268;2023-04-03T08:32:50;102605.56;;;5.25;100.00
15272;BME280;7737;51.578;7.268;2023-04-03T08:35:16;102602.91;;;5.08;100.00
15272;BME280;7737;51.578;7.268;2023-04-03T08:37:45;102611.81;;;5.59;100.00
15272;BME280;7737;51.578;7.268;2023-04-03T08:40:14;102601.16;;;5.13;100.00
15272;BME280;7737;51.578;7.268;2023-04-03T08:42:57;102590.66;;;5.40;100.00
15272;BME280;7737;51.578;7.268;2023-04-03T08:45:36;102575.72;;;5.45;100.00
15272;BME280;7737;51.578;7.268;2023-04-03T08:48:12;102579.25;;;5.55;100.00
15272;BME280;7737;51.578;7.268;2023-04-03T08:50:41;102566.06;;;5.29;100.00
15272;BME280;7737;51.578;7.268;2023-04-03T08:53:14;102569.56;;;5.65;100.00
15272;BME280;7737;51.578;7.268;2023-04-03T08:55:43;102559.06;;;5.59;100.00
15272;BME280;7737;51.578;7.268;2023-04-03T08:58:13;102551.09;;;5.72;100.00
15272;BME280;7737;51.578;7.268;2023-04-03T09:00:44;102548.50;;;5.80;100.00
15272;BME280;7737;51.578;7.268;2023-04-03T09:03:13;102522.09;;;5.49;100.00
15272;BME280;7737;51.578;7.268;2023-04-03T09:05:45;102534.44;;;5.87;100.00
15272;BME280;7737;51.578;7.268;2023-04-03T09:08:21;102515.03;;;6.01;100.00
15272;BME280;7737;51.578;7.268;2023-04-03T09:10:49;102508.03;;;5.97;100.00
15272;BME280;7737;51.578;7.268;2023-04-03T09:13:26;102510.59;;;6.20;100.00
15272;BME280;7737;51.578;7.268;2023-04-03T09:15:57;102495.72;;;6.01;100.00
15272;BME280;7737;51.578;7.268;2023-04-03T09:18:28;102492.13;;;6.20;100.00
15272;BME280;7737;51.578;7.268;2023-04-03T09:21:01;102492.94;;;6.39;100.00
15272;BME280;7737;51.578;7.268;2023-04-03T09:23:34;102477.22;;;5.99;100.00
15272;BME280;7737;51.578;7.268;2023-04-03T09:26:07;102486.84;;;6.20;100.00
15272;BME280;7737;51.578;7.268;2023-04-03T09:28:39;102460.41;;;6.20;100.00
15272;BME280;7737;51.578;7.268;2023-04-03T09:31:18;102468.22;;;6.50;100.00
15272;BME280;7737;51.578;7.268;2023-04-03T09:33:45;102472.56;;;6.63;100.00
15272;BME280;7737;51.578;7.268;2023-04-03T09:36:13;102458.59;;;6.40;100.00
15272;BME280;7737;51.578;7.268;2023-04-03T09:38:40;102455.84;;;6.61;100.00
15272;BME280;7737;51.578;7.268;2023-04-03T09:41:13;102462.94;;;6.53;100.00
15272;BME280;7737;51.578;7.268;2023-04-03T09:43:52;102463.88;;;6.40;99.14
15272;BME280;7737;51.578;7.268;2023-04-03T09:46:25;102437.41;;;6.46;98.25
15272;BME280;7737;51.578;7.268;2023-04-03T09:48:56;102438.25;;;6.54;98.07
15272;BME280;7737;51.578;7.268;2023-04-03T09:51:25;102436.47;;;6.58;96.25
15272;BME280;7737;51.578;7.268;2023-04-03T09:53:53;102417.25;;;6.35;92.99
15272;BME280;7737;51.578;7.268;2023-04-03T09:56:23;102433.81;;;6.61;95.17
15272;BME280;7737;51.578;7.268;2023-04-03T09:59:07;102439.16;;;6.53;94.74
15272;BME280;7737;51.578;7.268;2023-04-03T10:01:35;102434.78;;;6.51;94.14
15272;BME280;7737;51.578;7.268;2023-04-03T10:04:06;102430.16;;;6.82;95.24
15272;BME280;7737;51.578;7.268;2023-04-03T10:06:36;102425.94;;;6.56;92.06
15272;BME280;7737;51.578;7.268;2023-04-03T10:09:06;102428.38;;;6.84;93.80
15272;BME280;7737;51.578;7.268;2023-04-03T10:11:57;102419.59;;;6.82;92.21
15272;BME280;7737;51.578;7.268;2023-04-03T10:14:27;102434.56;;;6.84;92.04
15272;BME280;7737;51.578;7.268;2023-04-03T10:16:59;102433.63;;;6.90;93.67
15272;BME280;7737;51.578;7.268;2023-04-03T10:19:40;102447.72;;;6.89;93.50
15272;BME280;7737;51.578;7.268;2023-04-03T10:22:20;102420.47;;;6.81;90.84
15272;BME280;7737;51.578;7.268;2023-04-03T10:24:52;102431.69;;;7.13;92.62
15272;BME280;7737;51.578;7.268;2023-04-03T10:27:29;102434.41;;;7.07;92.59
15272;BME280;7737;51.578;7.268;2023-04-03T10:30:08;102422.97;;;7.02;89.99
15272;BME280;7737;51.578;7.268;2023-04-03T10:32:55;102419.31;;;7.18;90.92
15272;BME280;7737;51.578;7.268;2023-04-03T10:35:33;102437.78;;;7.24;89.60
15272;BME280;7737;51.578;7.268;2023-04-03T10:38:09;102428.94;;;7.26;89.10
15272;BME280;7737;51.578;7.268;2023-04-03T10:40:45;102404.31;;;7.20;87.82
15272;BME280;7737;51.578;7.268;2023-04-03T10:43:17;102406.06;;;7.21;85.69
15272;BME280;7737;51.578;7.268;2023-04-03T10:45:55;102392.53;;;7.54;87.23
15272;BME280;7737;51.578;7.268;2023-04-03T10:48:34;102393.81;;;7.94;87.43
15272;BME280;7737;51.578;7.268;2023-04-03T10:51:16;102383.78;;;7.49;85.79
15272;BME280;7737;51.578;7.268;2023-04-03T10:53:52;102382.47;;;7.85;86.05
15272;BME280;7737;51.578;7.268;2023-04-03T10:56:30;102374.44;;;7.92;86.57
15272;BME280;7737;51.578;7.268;2023-04-03T10:59:05;102377.41;;;8.37;86.49
15272;BME280;7737;51.578;7.268;2023-04-03T11:01:38;102358.50;;;7.95;83.95
15272;BME280;7737;51.578;7.268;2023-04-03T11:04:07;102353.22;;;7.95;84.45
15272;BME280;7737;51.578;7.268;2023-04-03T11:06:39;102338.16;;;8.02;80.67
15272;BME280;7737;51.578;7.268;2023-04-03T11:09:18;102328.50;;;7.96;80.30
15272;BME280;7737;51.578;7.268;2023-04-03T11:11:46;102324.75;;;8.11;80.08
15272;BME280;7737;51.578;7.268;2023-04-03T11:14:18;102322.69;;;8.36;80.77
15272;BME280;7737;51.578;7.268;2023-04-03T11:16:53;102318.28;;;8.35;80.63
15272;BME280;7737;51.578;7.268;2023-04-03T11:19:31;102316.66;;;8.81;81.48
15272;BME280;7737;51.578;7.268;2023-04-03T11:22:03;102297.88;;;8.40;79.02
15272;BME280;7737;51.578;7.268;2023-04-03T11:24:36;102287.06;;;8.53;78.46
15272;BME280;7737;51.578;7.268;2023-04-03T11:27:06;102278.44;;;8.41;77.43
15272;BME280;7737;51.578;7.268;2023-04-03T11:29:38;102299.00;;;8.80;79.87
15272;BME280;7737;51.578;7.268;2023-04-03T11:32:29;102279.53;;;8.81;78.05
15272;BME280;7737;51.578;7.268;2023-04-03T11:34:59;102269.13;;;8.69;77.80
15272;BME280;7737;51.578;7.268;2023-04-03T11:37:32;102265.16;;;8.94;77.25
15272;BME280;7737;51.578;7.268;2023-04-03T11:40:04;102247.81;;;8.75;74.04
15272;BME280;7737;51.578;7.268;2023-04-03T11:42:34;102222.53;;;8.56;72.31
15272;BME280;7737;51.578;7.268;2023-04-03T11:45:32;102224.59;;;8.89;72.96
15272;BME280;7737;51.578;7.268;2023-04-03T11:48:04;102222.84;;;9.33;73.51
15272;BME280;7737;51.578;7.268;2023-04-03T11:50:42;102201.31;;;9.05;71.79
15272;BME280;7737;51.578;7.268;2023-04-03T11:53:33;102206.50;;;9.09;72.51
15272;BME280;7737;51.578;7.268;2023-04-03T12:01:46;102196.78;;;9.53;72.10
15272;BME280;7737;51.578;7.268;2023-04-03T12:04:15;102178.38;;;9.02;70.02
15272;BME280;7737;51.578;7.268;2023-04-03T12:09:59;102178.63;;;8.89;69.34
15272;BME280;7737;51.578;7.268;2023-04-03T12:12:34;102190.72;;;9.46;72.11
15272;BME280;7737;51.578;7.268;2023-04-03T12:15:38;102225.03;;;9.95;73.56
15272;BME280;7737;51.578;7.268;2023-04-03T12:18:42;102202.19;;;9.47;71.57
15272;BME280;7737;51.578;7.268;2023-04-03T12:21:12;102199.50;;;9.88;71.24
15272;BME280;7737;51.578;7.268;2023-04-03T12:24:01;102180.91;;;9.50;69.31
15272;BME280;7737;51.578;7.268;2023-04-03T12:26:32;102180.13;;;9.83;71.28
15272;BME280;7737;51.578;7.268;2023-04-03T12:29:02;102178.75;;;9.67;72.27
15272;BME280;7737;51.578;7.268;2023-04-03T12:31:41;102175.59;;;9.50;71.35
15272;BME280;7737;51.578;7.268;2023-04-03T12:34:26;102187.75;;;9.98;72.66
15272;BME280;7737;51.578;7.268;2023-04-03T12:37:07;102170.34;;;10.23;70.88
15272;BME280;7737;51.578;7.268;2023-04-03T12:39:50;102143.72;;;9.88;68.26
15272;BME280;7737;51.578;7.268;2023-04-03T12:42:30;102126.38;;;9.73;67.55
15272;BME280;7737;51.578;7.268;2023-04-03T12:45:02;102124.09;;;9.94;67.81
15272;BME280;7737;51.578;7.268;2023-04-03T12:47:35;102158.88;;;9.85;71.44
15272;BME280;7737;51.578;7.268;2023-04-03T12:50:04;102143.38;;;10.02;69.59
15272;BME280;7737;51.578;7.268;2023-04-03T12:52:39;102145.03;;;9.69;68.82
15272;BME280;7737;51.578;7.268;2023-04-03T12:55:14;102132.56;;;9.74;68.02
15272;BME280;7737;51.578;7.268;2023-04-03T12:57:41;102122.72;;;9.79;67.33
15272;BME280;7737;51.578;7.268;2023-04-03T13:00:31;102117.13;;;9.53;66.57
15272;BME280;7737;51.578;7.268;2023-04-03T13:02:59;102112.03;;;9.44;64.60
15272;BME280;7737;51.578;7.268;2023-04-03T13:05:26;102129.72;;;10.18;68.47
15272;BME280;7737;51.578;7.268;2023-04-03T13:07:57;102173.13;;;10.19;70.21
15272;BME280;7737;51.578;7.268;2023-04-03T13:10:24;102162.16;;;10.66;72.19
15272;BME280;7737;51.578;7.268;2023-04-03T13:12:52;102139.53;;;9.78;67.35
15272;BME280;7737;51.578;7.268;2023-04-03T13:15:21;102145.66;;;10.18;68.57
15272;BME280;7737;51.578;7.268;2023-04-03T13:17:49;102126.94;;;9.86;66.57
15272;BME280;7737;51.578;7.268;2023-04-03T13:20:21;102135.53;;;9.97;66.71
15272;BME280;7737;51.578;7.268;2023-04-03T13:22:55;102098.38;;;9.59;64.88
15272;BME280;7737;51.578;7.268;2023-04-03T13:25:25;102127.97;;;10.51;67.96
15272;BME280;7737;51.578;7.268;2023-04-03T13:27:52;102111.06;;;10.20;65.53
15272;BME280;7737;51.578;7.268;2023-04-03T13:30:23;102111.91;;;9.85;65.30
15272;BME280;7737;51.578;7.268;2023-04-03T13:32:51;102124.59;;;10.09;67.13